Time;durP1;ratioP1;P1;durP2;ratioP2;P2;SDS_P1;SDS_P2;PMS_P1;PMS_P2;Temp;Humidity;BMP_temperature;BMP_pressure;BME280_temperature;BME280_humidity;BME280_pressure;Samples;Min_cycle;Max_cycle;Signal;HPM_P1;HPM_P2
2021/10/10 00:00:22;;;;;;;25.20;10.38;;;;;;;;;;5020055;28;20034;-57
2021/10/10 00:02:49;;;;;;;24.17;11.80;;;;;;;;;;5020591;28;20037;-60
2021/10/10 00:05:18;;;;;;;22.40;10.82;;;;;;;;;;5025368;28;20065;-57
2021/10/10 00:07:44;;;;;;;;;;;;;;;;;;5035996;28;20073;-60
2021/10/10 00:10:12;;;;;;;22.67;9.63;;;;;;;;;;5017712;28;19933;-63
2021/10/10 00:12:39;;;;;;;;;;;;;;;;;;5023192;28;20066;-64
2021/10/10 00:15:06;;;;;;;25.10;9.68;;;;;;;;;;4998250;28;19922;-63
2021/10/10 00:17:34;;;;;;;26.58;10.52;;;;;;;;;;5019700;28;20048;-61
2021/10/10 00:20:02;;;;;;;24.50;11.55;;;;;;;;;;5016726;28;20120;-59
2021/10/10 00:22:28;;;;;;;23.58;11.10;;;;;;;;;;5038541;28;20054;-59
2021/10/10 00:24:55;;;;;;;25.77;11.88;;;;;;;;;;5018388;28;20109;-64
2021/10/10 00:27:23;;;;;;;27.40;11.63;;;;;;;;;;5021313;28;20085;-61
2021/10/10 00:29:49;;;;;;;23.50;10.63;;;;;;;;;;4994989;28;20041;-59
2021/10/10 00:32:16;;;;;;;24.65;11.20;;;;;;;;;;4999691;28;20046;-58
2021/10/10 00:34:44;;;;;;;22.02;11.00;;;;;;;;;;5005502;28;20103;-59
2021/10/10 00:37:11;;;;;;;21.15;10.60;;;;;;;;;;5019195;28;20078;-62
2021/10/10 00:39:38;;;;;;;26.42;11.00;;;;;;;;;;5016599;28;20041;-57
2021/10/10 00:42:06;;;;;;;22.38;10.75;;;;;;;;;;5020239;28;20049;-57
2021/10/10 00:44:32;;;;;;;23.02;11.23;;;;;;;;;;5024008;28;20029;-63
2021/10/10 00:46:59;;;;;;;24.65;10.10;;;;;;;;;;5039498;28;20062;-62
2021/10/10 00:49:26;;;;;;;23.40;10.57;;;;;;;;;;5022035;28;20041;-65
2021/10/10 00:51:54;;;;;;;24.50;10.60;;;;;;;;;;4999738;28;20171;-64
2021/10/10 00:54:22;;;;;;;25.07;10.43;;;;;;;;;;5005552;28;20046;-64
2021/10/10 00:56:49;;;;;;;24.55;10.30;;;;;;;;;;5036088;28;20288;-64
2021/10/10 00:59:21;;;;;;;20.85;10.07;;;;;;;;;;5060994;28;20044;-65
2021/10/10 01:01:49;;;;;;;22.70;9.70;;;;;;;;;;5056694;28;20057;-65
2021/10/10 01:04:15;;;;;;;24.70;11.05;;;;;;;;;;5078462;28;20036;-63
2021/10/10 01:06:42;;;;;;;23.00;10.25;;;;;;;;;;5058125;28;20047;-62
2021/10/10 01:09:12;;;;;;;25.88;11.63;;;;;;;;;;5062768;28;20107;-60
2021/10/10 01:11:39;;;;;;;21.58;10.15;;;;;;;;;;5059030;28;20048;-62
2021/10/10 01:14:08;;;;;;;35.45;15.18;;;;;;;;;;5063767;28;20029;-59
2021/10/10 01:16:34;;;;;;;;;;;;;;;;;;5058179;28;20045;-58
2021/10/10 01:19:01;;;;;;;22.25;9.98;;;;;;;;;;5062076;28;19969;-63
2021/10/10 01:21:29;;;;;;;24.67;10.45;;;;;;;;;;5049985;28;20053;-58
2021/10/10 01:23:56;;;;;;;26.95;11.85;;;;;;;;;;5050103;28;20032;-63
2021/10/10 01:26:23;;;;;;;26.58;11.80;;;;;;;;;;5054964;28;20134;-62
2021/10/10 01:28:50;;;;;;;25.83;11.38;;;;;;;;;;5041385;28;20037;-58
2021/10/10 01:31:17;;;;;;;24.45;11.38;;;;;;;;;;5038908;28;20053;-60
2021/10/10 01:33:44;;;;;;;22.48;10.07;;;;;;;;;;5042630;28;20051;-58
2021/10/10 01:36:11;;;;;;;22.55;10.18;;;;;;;;;;5041290;28;20053;-60
2021/10/10 01:38:40;;;;;;;21.60;9.85;;;;;;;;;;5043815;28;20055;-59
2021/10/10 01:41:07;;;;;;;25.17;9.85;;;;;;;;;;5044386;28;20048;-61
2021/10/10 01:43:34;;;;;;;22.13;9.55;;;;;;;;;;5043008;28;20049;-58
2021/10/10 01:46:00;;;;;;;20.20;10.20;;;;;;;;;;5042542;28;20085;-59
2021/10/10 01:48:27;;;;;;;23.92;10.45;;;;;;;;;;5054471;28;20057;-60
2021/10/10 01:50:54;;;;;;;22.20;10.13;;;;;;;;;;5061545;28;20052;-59
2021/10/10 01:53:20;;;;;;;25.17;9.95;;;;;;;;;;5057518;28;20128;-59
2021/10/10 01:55:49;;;;;;;25.88;9.95;;;;;;;;;;5063089;28;20036;-58
2021/10/10 01:58:15;;;;;;;29.15;10.73;;;;;;;;;;5048618;28;20126;-58
2021/10/10 02:00:42;;;;;;;19.38;10.05;;;;;;;;;;5030504;28;20290;-59
2021/10/10 02:03:08;;;;;;;21.98;9.45;;;;;;;;;;5044603;28;20037;-65
2021/10/10 02:05:35;;;;;;;21.58;9.48;;;;;;;;;;5043015;28;20026;-60
2021/10/10 02:08:02;;;;;;;23.10;9.55;;;;;;;;;;5070777;28;20033;-60
2021/10/10 02:10:28;;;;;;;22.23;9.57;;;;;;;;;;5042345;28;20033;-62
2021/10/10 02:12:56;;;;;;;21.05;10.48;;;;;;;;;;5057461;28;20057;-65
2021/10/10 02:15:22;;;;;;;21.23;9.83;;;;;;;;;;5064257;28;20040;-65
2021/10/10 02:17:49;;;;;;;21.35;10.10;;;;;;;;;;5047434;28;20107;-64
2021/10/10 02:20:16;;;;;;;23.60;10.48;;;;;;;;;;5042820;28;20118;-62
2021/10/10 02:22:42;;;;;;;23.30;9.80;;;;;;;;;;5040145;28;20037;-63
2021/10/10 02:25:09;;;;;;;21.67;9.55;;;;;;;;;;5056237;28;20053;-61
2021/10/10 02:27:35;;;;;;;20.55;9.60;;;;;;;;;;5041820;28;20093;-58
2021/10/10 02:30:03;;;;;;;21.73;10.18;;;;;;;;;;5037851;28;20045;-63
2021/10/10 02:32:30;;;;;;;26.52;9.65;;;;;;;;;;5042539;28;20123;-64
2021/10/10 02:34:56;;;;;;;23.90;10.52;;;;;;;;;;5038899;28;20048;-62
2021/10/10 02:37:23;;;;;;;21.17;9.57;;;;;;;;;;5041808;28;20051;-61
2021/10/10 02:39:51;;;;;;;20.38;9.85;;;;;;;;;;5036514;28;20119;-59
2021/10/10 02:42:18;;;;;;;20.65;9.55;;;;;;;;;;5040761;28;20030;-59
2021/10/10 02:44:45;;;;;;;23.45;10.25;;;;;;;;;;5038111;28;20037;-57
2021/10/10 02:47:14;;;;;;;18.80;8.77;;;;;;;;;;5041221;28;20435;-59
2021/10/10 02:49:40;;;;;;;20.70;9.25;;;;;;;;;;5038176;28;20034;-62
2021/10/10 02:52:07;;;;;;;20.85;9.52;;;;;;;;;;5033889;28;20034;-58
2021/10/10 02:54:34;;;;;;;20.88;9.23;;;;;;;;;;5016425;28;20064;-58
2021/10/10 02:57:00;;;;;;;18.15;8.63;;;;;;;;;;5022415;28;20096;-58
2021/10/10 02:59:29;;;;;;;20.23;8.57;;;;;;;;;;5019389;28;20034;-61
2021/10/10 03:01:55;;;;;;;19.95;9.30;;;;;;;;;;5095952;22;20106;-60
2021/10/10 03:04:23;;;;;;;19.60;8.95;;;;;;;;;;5018662;28;20046;-61
2021/10/10 03:06:50;;;;;;;23.83;9.20;;;;;;;;;;5012610;28;20041;-58
2021/10/10 03:09:21;;;;;;;19.58;8.60;;;;;;;;;;5038242;28;20061;-60
2021/10/10 03:11:47;;;;;;;21.42;9.50;;;;;;;;;;5030716;28;20029;-61
2021/10/10 03:14:14;;;;;;;19.25;8.93;;;;;;;;;;5041589;28;20041;-57
2021/10/10 03:16:40;;;;;;;17.90;8.63;;;;;;;;;;5032334;28;20056;-59
2021/10/10 03:19:07;;;;;;;15.82;8.05;;;;;;;;;;5037570;28;20072;-59
2021/10/10 03:21:35;;;;;;;18.00;8.25;;;;;;;;;;5037484;28;20057;-58
2021/10/10 03:24:03;;;;;;;23.47;10.00;;;;;;;;;;5033861;28;20041;-58
2021/10/10 03:26:29;;;;;;;19.13;9.43;;;;;;;;;;5041554;28;20049;-58
2021/10/10 03:28:57;;;;;;;22.13;9.50;;;;;;;;;;5013585;28;20045;-64
2021/10/10 03:31:23;;;;;;;19.95;9.05;;;;;;;;;;5040689;28;20130;-57
2021/10/10 03:33:50;;;;;;;21.10;9.05;;;;;;;;;;5032195;28;20049;-58
2021/10/10 03:36:16;;;;;;;22.42;9.20;;;;;;;;;;5038339;28;20120;-60
2021/10/10 03:38:47;;;;;;;19.45;8.90;;;;;;;;;;5034404;28;20053;-64
2021/10/10 03:41:14;;;;;;;16.52;8.50;;;;;;;;;;5036121;28;20037;-57
2021/10/10 03:43:41;;;;;;;15.25;7.60;;;;;;;;;;5041404;28;20041;-57
2021/10/10 03:46:07;;;;;;;15.68;7.70;;;;;;;;;;5026805;28;20037;-59
2021/10/10 03:48:34;;;;;;;19.70;8.15;;;;;;;;;;5038130;28;20049;-62
2021/10/10 03:51:02;;;;;;;18.27;8.43;;;;;;;;;;5031808;28;20033;-58
2021/10/10 03:53:35;;;;;;;16.98;7.75;;;;;;;;;;5037438;28;20042;-59
2021/10/10 03:56:03;;;;;;;18.63;8.20;;;;;;;;;;5030743;28;20082;-58
2021/10/10 03:58:34;;;;;;;16.50;7.45;;;;;;;;;;5039120;28;20037;-58
2021/10/10 04:01:00;;;;;;;15.63;8.32;;;;;;;;;;5036526;28;20037;-60
2021/10/10 04:03:27;;;;;;;18.80;7.97;;;;;;;;;;5043326;28;20048;-61
2021/10/10 04:05:54;;;;;;;16.67;8.05;;;;;;;;;;5044022;28;20049;-57
2021/10/10 04:08:21;;;;;;;18.70;7.65;;;;;;;;;;5039015;28;20052;-58
2021/10/10 04:10:47;;;;;;;18.35;8.20;;;;;;;;;;5042508;28;20064;-57
2021/10/10 04:13:15;;;;;;;19.55;8.55;;;;;;;;;;5040214;28;20057;-59
2021/10/10 04:15:42;;;;;;;16.53;8.13;;;;;;;;;;5044533;28;20059;-59
2021/10/10 04:18:13;;;;;;;21.38;9.02;;;;;;;;;;5039984;28;20050;-59
2021/10/10 04:20:40;;;;;;;17.90;8.40;;;;;;;;;;5044095;28;20041;-59
2021/10/10 04:23:07;;;;;;;22.67;8.80;;;;;;;;;;5038368;28;20061;-58
2021/10/10 04:25:33;;;;;;;17.50;7.85;;;;;;;;;;5023259;28;20038;-62
2021/10/10 04:28:00;;;;;;;18.58;7.88;;;;;;;;;;5034947;28;20037;-63
2021/10/10 04:30:31;;;;;;;19.85;8.65;;;;;;;;;;5031888;28;20048;-64
2021/10/10 04:32:57;;;;;;;21.20;8.90;;;;;;;;;;5043321;28;20073;-61
2021/10/10 04:35:24;;;;;;;20.73;9.10;;;;;;;;;;5021699;28;20074;-60
2021/10/10 04:37:50;;;;;;;20.00;8.80;;;;;;;;;;5023865;28;20107;-65
2021/10/10 04:40:16;;;;;;;19.80;9.18;;;;;;;;;;5036347;28;20037;-63
2021/10/10 04:42:43;;;;;;;20.23;9.15;;;;;;;;;;5044994;28;20037;-59
2021/10/10 04:45:10;;;;;;;20.10;8.85;;;;;;;;;;5030728;28;20057;-63
2021/10/10 04:47:38;;;;;;;19.52;8.80;;;;;;;;;;5026199;28;20026;-57
2021/10/10 04:50:07;;;;;;;18.92;9.00;;;;;;;;;;5031749;28;20030;-60
2021/10/10 04:52:33;;;;;;;18.58;8.98;;;;;;;;;;5046217;28;20118;-64
2021/10/10 04:55:02;;;;;;;19.98;9.55;;;;;;;;;;5041398;28;20033;-57
2021/10/10 04:57:28;;;;;;;20.60;8.35;;;;;;;;;;5045084;28;20037;-62
2021/10/10 04:59:55;;;;;;;18.42;8.18;;;;;;;;;;5038756;28;20034;-64
2021/10/10 05:02:22;;;;;;;19.08;8.60;;;;;;;;;;5047231;28;20060;-60
2021/10/10 05:04:51;;;;;;;18.77;8.70;;;;;;;;;;5040487;28;20523;-63
2021/10/10 05:07:17;;;;;;;18.17;8.88;;;;;;;;;;5025872;28;20077;-62
2021/10/10 05:09:45;;;;;;;18.77;8.70;;;;;;;;;;5023913;28;20115;-64
2021/10/10 05:12:12;;;;;;;19.23;8.53;;;;;;;;;;5045834;28;20037;-64
2021/10/10 05:14:39;;;;;;;17.88;8.20;;;;;;;;;;5048311;28;20029;-64
2021/10/10 05:17:06;;;;;;;15.70;7.90;;;;;;;;;;5024777;28;20042;-61
2021/10/10 05:19:36;;;;;;;18.83;8.65;;;;;;;;;;5024462;28;20041;-64
2021/10/10 05:22:04;;;;;;;20.10;8.40;;;;;;;;;;5056773;28;20045;-61
2021/10/10 05:24:31;;;;;;;20.67;9.25;;;;;;;;;;5045982;28;20057;-65
2021/10/10 05:26:59;;;;;;;19.48;8.73;;;;;;;;;;5042167;28;20029;-65
2021/10/10 05:29:26;;;;;;;18.50;8.18;;;;;;;;;;5045422;28;20037;-62
2021/10/10 05:31:52;;;;;;;19.90;8.52;;;;;;;;;;5029102;28;20033;-64
2021/10/10 05:34:19;;;;;;;18.65;8.80;;;;;;;;;;5023231;28;20670;-60
2021/10/10 05:36:45;;;;;;;19.40;8.98;;;;;;;;;;5022443;28;20037;-64
2021/10/10 05:39:14;;;;;;;15.38;7.70;;;;;;;;;;5024367;28;20065;-61
2021/10/10 05:41:40;;;;;;;16.70;8.38;;;;;;;;;;5027478;28;20176;-59
2021/10/10 05:44:07;;;;;;;22.23;7.80;;;;;;;;;;5045412;28;20037;-63
2021/10/10 05:46:33;;;;;;;18.00;8.50;;;;;;;;;;5037211;28;20069;-64
2021/10/10 05:49:07;;;;;;;19.90;8.40;;;;;;;;;;5026134;28;20042;-63
2021/10/10 05:51:34;;;;;;;18.40;8.05;;;;;;;;;;5023402;28;20040;-64
2021/10/10 05:54:00;;;;;;;20.25;8.88;;;;;;;;;;5027740;28;20048;-62
2021/10/10 05:56:31;;;;;;;18.45;8.63;;;;;;;;;;5029818;28;20123;-64
2021/10/10 05:59:02;;;;;;;18.10;8.48;;;;;;;;;;5027081;28;20038;-58
2021/10/10 06:01:29;;;;;;;16.65;7.78;;;;;;;;;;5024785;28;20038;-61
2021/10/10 06:03:56;;;;;;;18.08;8.27;;;;;;;;;;5020721;28;20045;-61
2021/10/10 06:06:22;;;;;;;15.32;7.22;;;;;;;;;;5024637;28;20046;-60
2021/10/10 06:08:49;;;;;;;19.95;8.45;;;;;;;;;;5022482;28;20034;-58
2021/10/10 06:11:16;;;;;;;21.42;8.48;;;;;;;;;;5029867;28;20053;-59
2021/10/10 06:13:44;;;;;;;16.17;8.05;;;;;;;;;;5040191;28;20043;-58
2021/10/10 06:16:10;;;;;;;20.30;7.97;;;;;;;;;;5046196;28;20057;-58
2021/10/10 06:18:43;;;;;;;17.55;7.68;;;;;;;;;;5041302;28;20270;-58
2021/10/10 06:21:10;;;;;;;19.10;8.30;;;;;;;;;;5045739;28;20061;-59
2021/10/10 06:23:36;;;;;;;18.48;8.27;;;;;;;;;;5042391;28;20041;-58
2021/10/10 06:26:03;;;;;;;20.75;8.27;;;;;;;;;;5045420;28;20037;-58
2021/10/10 06:28:30;;;;;;;21.40;8.90;;;;;;;;;;5035158;28;20038;-57
2021/10/10 06:30:58;;;;;;;19.95;8.98;;;;;;;;;;5024601;28;20053;-58
2021/10/10 06:33:24;;;;;;;22.33;8.77;;;;;;;;;;5025937;28;20038;-59
2021/10/10 06:35:52;;;;;;;18.80;8.52;;;;;;;;;;5046465;28;20033;-58
2021/10/10 06:38:21;;;;;;;20.40;9.02;;;;;;;;;;5038202;28;21813;-58
2021/10/10 06:40:48;;;;;;;20.13;8.25;;;;;;;;;;5023735;28;20038;-57
2021/10/10 06:43:15;;;;;;;17.00;8.48;;;;;;;;;;5040410;28;20053;-62
2021/10/10 06:45:41;;;;;;;20.75;9.02;;;;;;;;;;5024595;28;20057;-59
2021/10/10 06:48:09;;;;;;;25.52;9.55;;;;;;;;;;5025475;28;20042;-57
2021/10/10 06:50:36;;;;;;;19.48;9.23;;;;;;;;;;5038915;28;20146;-58
2021/10/10 06:53:03;;;;;;;20.63;9.10;;;;;;;;;;5037669;28;20044;-58
2021/10/10 06:55:29;;;;;;;23.30;9.52;;;;;;;;;;5034442;28;20049;-60
2021/10/10 06:58:01;;;;;;;22.20;9.55;;;;;;;;;;5034755;28;20050;-57
2021/10/10 07:00:27;;;;;;;22.75;9.80;;;;;;;;;;5034514;28;20030;-58
2021/10/10 07:02:54;;;;;;;23.55;10.32;;;;;;;;;;5034290;28;20033;-58
2021/10/10 07:05:22;;;;;;;22.70;10.07;;;;;;;;;;5017081;28;20050;-58
2021/10/10 07:07:49;;;;;;;26.10;10.43;;;;;;;;;;5020280;28;20026;-58
2021/10/10 07:10:16;;;;;;;23.80;10.05;;;;;;;;;;5016536;28;20475;-60
2021/10/10 07:12:44;;;;;;;21.23;10.10;;;;;;;;;;5021421;28;20038;-58
2021/10/10 07:15:12;;;;;;;;;;;;;;;;;;5033767;28;20029;-59
2021/10/10 07:17:39;;;;;;;21.47;9.03;;;;;;;;;;5039995;28;19947;-61
2021/10/10 07:20:10;;;;;;;20.33;9.68;;;;;;;;;;5030875;28;20047;-60
2021/10/10 07:22:46;;;;;;;21.48;10.38;;;;;;;;;;5033480;28;20087;-65
2021/10/10 07:25:13;;;;;;;17.48;8.88;;;;;;;;;;5038028;28;20081;-59
2021/10/10 07:27:40;;;;;;;18.25;8.75;;;;;;;;;;5037774;28;20033;-58
2021/10/10 07:30:08;;;;;;;16.58;8.57;;;;;;;;;;5035971;28;20041;-62
2021/10/10 07:32:34;;;;;;;19.50;8.90;;;;;;;;;;5035147;28;20068;-59
2021/10/10 07:35:01;;;;;;;19.33;9.13;;;;;;;;;;5056076;28;20062;-62
2021/10/10 07:37:28;;;;;;;25.17;11.00;;;;;;;;;;5028087;28;20046;-60
2021/10/10 07:39:56;;;;;;;18.85;9.55;;;;;;;;;;5040464;28;20033;-59
2021/10/10 07:42:23;;;;;;;21.08;10.00;;;;;;;;;;5034384;28;20099;-60
2021/10/10 07:44:51;;;;;;;16.05;8.38;;;;;;;;;;5030780;28;20033;-58
2021/10/10 07:47:30;;;;;;;21.73;9.55;;;;;;;;;;5032127;28;20047;-60
2021/10/10 07:50:06;;;;;;;20.63;9.65;;;;;;;;;;5032912;28;20042;-61
2021/10/10 07:52:33;;;;;;;20.85;9.55;;;;;;;;;;5029120;28;20042;-58
2021/10/10 07:55:01;;;;;;;21.23;9.95;;;;;;;;;;5041758;28;20052;-58
2021/10/10 07:57:28;;;;;;;17.80;9.48;;;;;;;;;;5037122;28;20045;-60
2021/10/10 07:59:55;;;;;;;18.00;8.93;;;;;;;;;;5031434;28;20056;-60
2021/10/10 08:02:21;;;;;;;20.52;9.88;;;;;;;;;;5035276;28;20059;-60
2021/10/10 08:04:48;;;;;;;21.13;9.52;;;;;;;;;;5043868;28;20056;-58
2021/10/10 08:07:14;;;;;;;23.83;10.65;;;;;;;;;;5034170;28;20038;-60
2021/10/10 08:09:41;;;;;;;20.15;10.50;;;;;;;;;;5022887;28;20414;-61
2021/10/10 08:12:09;;;;;;;22.50;10.75;;;;;;;;;;5017198;28;20029;-58
2021/10/10 08:14:35;;;;;;;20.47;10.27;;;;;;;;;;5024941;28;20034;-57
2021/10/10 08:17:02;;;;;;;21.02;10.65;;;;;;;;;;5022478;28;20282;-57
2021/10/10 08:19:29;;;;;;;20.02;10.63;;;;;;;;;;5045868;28;20034;-60
2021/10/10 08:21:56;;;;;;;25.75;11.57;;;;;;;;;;5043999;28;20045;-58
2021/10/10 08:24:23;;;;;;;22.05;10.52;;;;;;;;;;5036877;28;20041;-62
2021/10/10 08:26:50;;;;;;;20.70;10.93;;;;;;;;;;5043267;28;20085;-58
2021/10/10 08:29:18;;;;;;;21.48;11.38;;;;;;;;;;5039483;28;20099;-57
2021/10/10 08:31:45;;;;;;;28.77;12.50;;;;;;;;;;5044021;28;20041;-59
2021/10/10 08:34:12;;;;;;;27.83;12.32;;;;;;;;;;5041413;28;20040;-61
2021/10/10 08:36:38;;;;;;;24.88;12.35;;;;;;;;;;5042429;28;20029;-59
2021/10/10 08:39:10;;;;;;;26.38;11.73;;;;;;;;;;5029532;28;20127;-58
2021/10/10 08:41:37;;;;;;;25.58;12.32;;;;;;;;;;5031746;28;20057;-60
2021/10/10 08:44:04;;;;;;;21.73;11.60;;;;;;;;;;5030759;28;20032;-59
2021/10/10 08:46:35;;;;;;;27.45;13.52;;;;;;;;;;5025987;28;20042;-63
2021/10/10 08:49:04;;;;;;;28.13;13.68;;;;;;;;;;5020378;28;20037;-62
2021/10/10 08:51:33;;;;;;;28.38;12.95;;;;;;;;;;5030719;28;20034;-61
2021/10/10 08:54:00;;;;;;;33.03;13.55;;;;;;;;;;5020812;28;20030;-61
2021/10/10 08:56:26;;;;;;;34.10;14.93;;;;;;;;;;5025106;28;20038;-60
2021/10/10 08:58:54;;;;;;;34.80;15.07;;;;;;;;;;5021458;28;20107;-61
2021/10/10 09:01:28;;;;;;;28.98;14.43;;;;;;;;;;5023180;28;20056;-59
2021/10/10 09:03:56;;;;;;;30.08;13.77;;;;;;;;;;5018032;28;20087;-61
2021/10/10 09:06:23;;;;;;;30.77;13.90;;;;;;;;;;5021674;28;20051;-62
2021/10/10 09:08:54;;;;;;;29.60;14.55;;;;;;;;;;5020993;28;20062;-60
2021/10/10 09:11:20;;;;;;;35.50;14.48;;;;;;;;;;5039611;28;20064;-60
2021/10/10 09:13:48;;;;;;;28.83;14.55;;;;;;;;;;5040950;28;20044;-60
2021/10/10 09:16:14;;;;;;;28.50;14.30;;;;;;;;;;5033383;28;20040;-59
2021/10/10 09:18:42;;;;;;;30.17;15.25;;;;;;;;;;5042401;28;20037;-60
2021/10/10 09:21:18;;;;;;;30.55;16.27;;;;;;;;;;5037670;28;20042;-59
2021/10/10 09:23:49;;;;;;;35.50;15.88;;;;;;;;;;5042569;28;20026;-59
2021/10/10 09:26:15;;;;;;;39.00;17.48;;;;;;;;;;5027205;28;20034;-62
2021/10/10 09:28:44;;;;;;;37.67;17.42;;;;;;;;;;5025170;28;20156;-59
2021/10/10 09:31:10;;;;;;;35.45;17.52;;;;;;;;;;5018312;28;20077;-58
2021/10/10 09:33:39;;;;;;;40.72;17.73;;;;;;;;;;5023376;28;20046;-61
2021/10/10 09:36:08;;;;;;;37.67;17.83;;;;;;;;;;5020229;28;20048;-61
2021/10/10 09:38:51;;;;;;;42.15;19.13;;;;;;;;;;5024726;28;20113;-60
2021/10/10 09:41:23;;;;;;;44.25;19.15;;;;;;;;;;5022006;28;20062;-63
2021/10/10 09:43:57;;;;;;;37.80;17.88;;;;;;;;;;5026643;28;20041;-60
2021/10/10 09:46:24;;;;;;;65.28;27.75;;;;;;;;;;5026103;28;20037;-62
2021/10/10 09:48:52;;;;;;;58.15;26.25;;;;;;;;;;5025934;28;20046;-61
2021/10/10 09:51:29;;;;;;;46.20;22.13;;;;;;;;;;5026643;28;20038;-61
2021/10/10 09:54:01;;;;;;;47.20;20.50;;;;;;;;;;5026487;28;20034;-59
2021/10/10 09:56:28;;;;;;;41.25;18.75;;;;;;;;;;5022762;28;20025;-63
2021/10/10 09:58:56;;;;;;;40.28;19.23;;;;;;;;;;5025022;28;20041;-60
2021/10/10 10:01:24;;;;;;;38.25;18.70;;;;;;;;;;5024440;28;20091;-62
2021/10/10 10:04:08;;;;;;;43.72;19.63;;;;;;;;;;5045014;28;20033;-62
2021/10/10 10:06:35;;;;;;;41.05;18.98;;;;;;;;;;5031523;28;20045;-61
2021/10/10 10:09:05;;;;;;;47.95;20.45;;;;;;;;;;5045612;28;20041;-62
2021/10/10 10:11:34;;;;;;;48.17;21.05;;;;;;;;;;5033973;28;20033;-61
2021/10/10 10:14:01;;;;;;;45.83;20.83;;;;;;;;;;5045977;28;20164;-62
2021/10/10 10:16:28;;;;;;;40.95;19.75;;;;;;;;;;5046583;28;20114;-62
2021/10/10 10:18:58;;;;;;;44.30;20.55;;;;;;;;;;5031639;28;20049;-59
2021/10/10 10:21:25;;;;;;;41.15;20.38;;;;;;;;;;5027431;28;20044;-60
2021/10/10 10:23:51;;;;;;;41.13;20.50;;;;;;;;;;5020865;28;20042;-62
2021/10/10 10:26:18;;;;;;;47.08;21.52;;;;;;;;;;5027265;28;20083;-62
2021/10/10 10:28:48;;;;;;;42.45;19.27;;;;;;;;;;5021334;28;20037;-62
2021/10/10 10:31:15;;;;;;;44.55;20.70;;;;;;;;;;5041610;28;20045;-62
2021/10/10 10:33:42;;;;;;;41.83;19.27;;;;;;;;;;5039097;28;20049;-60
2021/10/10 10:36:10;;;;;;;46.03;19.00;;;;;;;;;;5026325;28;20030;-61
2021/10/10 10:38:37;;;;;;;;;;;;;;;;;;5023381;28;20041;-62
2021/10/10 10:41:04;;;;;;;37.45;17.08;;;;;;;;;;5026814;28;19917;-59
2021/10/10 10:43:34;;;;;;;41.13;18.35;;;;;;;;;;5042257;28;20044;-59
2021/10/10 10:46:07;;;;;;;42.40;19.80;;;;;;;;;;5045531;28;20126;-59
2021/10/10 10:48:36;;;;;;;49.58;20.38;;;;;;;;;;5033474;28;20026;-59
2021/10/10 10:51:02;;;;;;;;;;;;;;;;;;5024031;28;20053;-59
2021/10/10 10:53:29;;;;;;;41.53;18.10;;;;;;;;;;5021305;28;19917;-60
2021/10/10 10:55:56;;;;;;;46.05;21.33;;;;;;;;;;5024074;28;20056;-59
2021/10/10 10:58:23;;;;;;;42.97;19.85;;;;;;;;;;5019993;28;20042;-59
2021/10/10 11:00:51;;;;;;;49.00;19.70;;;;;;;;;;5023540;28;20081;-61
2021/10/10 11:03:27;;;;;;;45.17;20.30;;;;;;;;;;5023481;28;20042;-60
2021/10/10 11:05:55;;;;;;;44.95;18.70;;;;;;;;;;5044999;28;20266;-59
2021/10/10 11:08:36;;;;;;;46.97;19.85;;;;;;;;;;5038657;28;20036;-59
2021/10/10 11:11:12;;;;;;;52.38;20.77;;;;;;;;;;5029019;28;20053;-59
2021/10/10 11:13:40;;;;;;;49.17;21.50;;;;;;;;;;5044496;28;20048;-61
2021/10/10 11:16:09;;;;;;;44.65;20.00;;;;;;;;;;5021884;28;20042;-59
2021/10/10 11:18:51;;;;;;;45.15;20.10;;;;;;;;;;5034851;28;20095;-60
2021/10/10 11:21:19;;;;;;;47.97;20.65;;;;;;;;;;5041107;28;20123;-61
2021/10/10 11:23:48;;;;;;;49.88;21.20;;;;;;;;;;5044218;28;20092;-59
2021/10/10 11:26:15;;;;;;;46.20;20.10;;;;;;;;;;5039761;28;20041;-60
2021/10/10 11:28:44;;;;;;;59.10;21.48;;;;;;;;;;5045121;28;20033;-59
2021/10/10 11:31:10;;;;;;;;;;;;;;;;;;5040585;28;20085;-61
2021/10/10 11:33:37;;;;;;;65.07;26.08;;;;;;;;;;5044524;28;19999;-61
2021/10/10 11:36:05;;;;;;;60.38;24.20;;;;;;;;;;5028168;28;20030;-61
2021/10/10 11:38:48;;;;;;;53.10;23.08;;;;;;;;;;5025463;28;20045;-60
2021/10/10 11:41:15;;;;;;;59.80;24.48;;;;;;;;;;5023163;28;20061;-62
2021/10/10 11:43:52;;;;;;;57.53;23.63;;;;;;;;;;5025257;28;20045;-63
2021/10/10 11:46:20;;;;;;;62.63;24.83;;;;;;;;;;5025427;28;20111;-60
2021/10/10 11:48:48;;;;;;;62.10;24.23;;;;;;;;;;5041109;28;20033;-61
2021/10/10 11:51:31;;;;;;;67.70;25.00;;;;;;;;;;5031164;28;20049;-61
2021/10/10 11:53:58;;;;;;;61.75;26.90;;;;;;;;;;5021948;28;20112;-62
2021/10/10 11:56:25;;;;;;;61.70;25.30;;;;;;;;;;5033043;28;20073;-59
2021/10/10 11:58:51;;;;;;;60.25;25.63;;;;;;;;;;5044571;28;20049;-61
2021/10/10 12:01:18;;;;;;;61.80;25.02;;;;;;;;;;5038410;28;20066;-60
2021/10/10 12:03:48;;;;;;;65.65;26.52;;;;;;;;;;5042829;28;20098;-60
2021/10/10 12:06:18;;;;;;;58.55;25.08;;;;;;;;;;5036351;28;20049;-60
2021/10/10 12:08:47;;;;;;;59.95;26.02;;;;;;;;;;5023631;28;20045;-61
2021/10/10 12:11:14;;;;;;;53.08;23.33;;;;;;;;;;5023678;28;20041;-60
2021/10/10 12:13:54;;;;;;;61.38;25.35;;;;;;;;;;5024271;28;20037;-59
2021/10/10 12:16:21;;;;;;;64.43;27.73;;;;;;;;;;5021501;28;20074;-60
2021/10/10 12:18:59;;;;;;;54.80;23.88;;;;;;;;;;5023709;28;20050;-61
2021/10/10 12:21:27;;;;;;;49.10;22.13;;;;;;;;;;5021397;28;20104;-65
2021/10/10 12:24:09;;;;;;;55.70;23.30;;;;;;;;;;5024499;28;20034;-65
2021/10/10 12:26:45;;;;;;;53.08;21.15;;;;;;;;;;5010204;28;20038;-61
2021/10/10 12:29:27;;;;;;;53.42;23.35;;;;;;;;;;5016268;28;20038;-61
2021/10/10 12:31:54;;;;;;;46.78;21.10;;;;;;;;;;5005264;28;20034;-60
2021/10/10 12:34:29;;;;;;;54.05;22.35;;;;;;;;;;5018753;28;20042;-62
2021/10/10 12:36:56;;;;;;;53.85;24.35;;;;;;;;;;5025158;28;20041;-61
2021/10/10 12:39:42;;;;;;;51.25;21.00;;;;;;;;;;5039954;28;20122;-61
2021/10/10 12:42:09;;;;;;;54.00;23.20;;;;;;;;;;5038377;28;20053;-62
2021/10/10 12:44:36;;;;;;;50.30;23.70;;;;;;;;;;5021879;28;20078;-62
2021/10/10 12:47:03;;;;;;;49.88;21.95;;;;;;;;;;5024042;28;20038;-62
2021/10/10 12:49:33;;;;;;;59.17;25.35;;;;;;;;;;5019014;28;20052;-59
2021/10/10 12:52:00;;;;;;;50.60;21.27;;;;;;;;;;5025351;28;20086;-63
2021/10/10 12:54:28;;;;;;;46.40;21.93;;;;;;;;;;5034992;28;20049;-62
2021/10/10 12:57:00;;;;;;;49.70;21.13;;;;;;;;;;5035313;28;20037;-62
2021/10/10 12:59:27;;;;;;;51.65;22.55;;;;;;;;;;5038718;28;20050;-63
2021/10/10 13:01:53;;;;;;;49.40;23.05;;;;;;;;;;5045989;28;20065;-63
2021/10/10 13:04:20;;;;;;;51.13;21.50;;;;;;;;;;5039646;28;20037;-62
2021/10/10 13:06:47;;;;;;;54.83;23.05;;;;;;;;;;5046779;28;20038;-63
2021/10/10 13:09:17;;;;;;;51.40;23.15;;;;;;;;;;5034914;28;20052;-62
2021/10/10 13:11:44;;;;;;;48.72;21.60;;;;;;;;;;5036842;28;20041;-61
2021/10/10 13:14:12;;;;;;;49.78;22.58;;;;;;;;;;5041569;28;20037;-61
2021/10/10 13:16:39;;;;;;;52.58;22.20;;;;;;;;;;5047274;28;20044;-62
2021/10/10 13:19:11;;;;;;;50.45;23.00;;;;;;;;;;5044231;28;20030;-61
2021/10/10 13:21:39;;;;;;;45.78;19.80;;;;;;;;;;5033414;28;20128;-63
2021/10/10 13:24:06;;;;;;;49.60;21.95;;;;;;;;;;5026398;28;20053;-60
2021/10/10 13:26:33;;;;;;;47.15;20.67;;;;;;;;;;5044274;28;20043;-61
2021/10/10 13:29:01;;;;;;;46.10;20.38;;;;;;;;;;5044225;28;20036;-61
2021/10/10 13:31:28;;;;;;;48.15;20.95;;;;;;;;;;5024999;28;20045;-62
2021/10/10 13:33:55;;;;;;;45.95;20.83;;;;;;;;;;5025819;28;20049;-61
2021/10/10 13:36:21;;;;;;;47.38;22.10;;;;;;;;;;5023227;28;20054;-61
2021/10/10 13:38:49;;;;;;;48.03;21.20;;;;;;;;;;5015807;28;20128;-60
2021/10/10 13:41:16;;;;;;;46.08;21.65;;;;;;;;;;5028256;28;20076;-61
2021/10/10 13:43:43;;;;;;;50.60;20.83;;;;;;;;;;5045869;28;20059;-61
2021/10/10 13:46:11;;;;;;;46.97;21.60;;;;;;;;;;5029607;28;20034;-60
2021/10/10 13:48:39;;;;;;;49.80;22.02;;;;;;;;;;5025490;28;20048;-61
2021/10/10 13:51:07;;;;;;;45.20;20.77;;;;;;;;;;5022731;28;20037;-60
2021/10/10 13:53:34;;;;;;;48.58;19.90;;;;;;;;;;5026057;28;20050;-61
2021/10/10 13:56:01;;;;;;;48.17;20.15;;;;;;;;;;5021472;28;20048;-61
2021/10/10 13:58:28;;;;;;;48.33;22.10;;;;;;;;;;5016450;28;20048;-60
2021/10/10 14:00:55;;;;;;;49.50;22.35;;;;;;;;;;5023515;28;20053;-60
2021/10/10 14:03:22;;;;;;;51.78;22.00;;;;;;;;;;5024451;28;20057;-60
2021/10/10 14:05:51;;;;;;;49.30;21.70;;;;;;;;;;5014029;28;20029;-62
2021/10/10 14:08:18;;;;;;;54.67;22.98;;;;;;;;;;5024222;28;20098;-60
2021/10/10 14:10:45;;;;;;;56.28;24.52;;;;;;;;;;5021146;28;20042;-61
2021/10/10 14:13:14;;;;;;;44.55;20.20;;;;;;;;;;5045385;28;20033;-63
2021/10/10 14:15:41;;;;;;;42.97;19.70;;;;;;;;;;5043849;28;20048;-57
2021/10/10 14:18:12;;;;;;;43.83;20.00;;;;;;;;;;5041180;28;20045;-58
2021/10/10 14:20:39;;;;;;;44.03;19.50;;;;;;;;;;5046501;28;20041;-57
2021/10/10 14:23:09;;;;;;;47.13;20.27;;;;;;;;;;5023933;28;20045;-60
2021/10/10 14:25:35;;;;;;;37.50;17.52;;;;;;;;;;5025956;28;20045;-59
2021/10/10 14:28:02;;;;;;;45.45;19.13;;;;;;;;;;5023129;28;20048;-62